sensor_id;sensor_type;location;lat;lon;timestamp;pressure;altitude;pressure_sealevel;temperature
34023;BMP280;20673;48.980;8.138;2023-08-07T00:00:57;100072.33;;;14.67
34023;BMP280;20673;48.980;8.138;2023-08-07T00:03:23;100069.99;;;14.65
34023;BMP280;20673;48.980;8.138;2023-08-07T00:05:50;100074.86;;;14.63
34023;BMP280;20673;48.980;8.138;2023-08-07T00:08:19;100071.53;;;14.59
34023;BMP280;20673;48.980;8.138;2023-08-07T00:10:45;100077.86;;;14.64
34023;BMP280;20673;48.980;8.138;2023-08-07T00:13:11;100072.18;;;14.60
34023;BMP280;20673;48.980;8.138;2023-08-07T00:15:40;100079.39;;;14.59
34023;BMP280;20673;48.980;8.138;2023-08-07T00:18:06;100079.23;;;14.58
34023;BMP280;20673;48.980;8.138;2023-08-07T00:20:32;100079.22;;;14.59
34023;BMP280;20673;48.980;8.138;2023-08-07T00:22:58;100080.14;;;14.59
34023;BMP280;20673;48.980;8.138;2023-08-07T00:25:24;100081.38;;;14.62
34023;BMP280;20673;48.980;8.138;2023-08-07T00:27:50;100078.72;;;14.58
34023;BMP280;20673;48.980;8.138;2023-08-07T00:30:16;100079.42;;;14.60
34023;BMP280;20673;48.980;8.138;2023-08-07T00:32:43;100080.20;;;14.64
34023;BMP280;20673;48.980;8.138;2023-08-07T00:35:09;100083.98;;;14.62
34023;BMP280;20673;48.980;8.138;2023-08-07T00:37:35;100086.28;;;14.62
34023;BMP280;20673;48.980;8.138;2023-08-07T00:40:01;100080.17;;;14.61
34023;BMP280;20673;48.980;8.138;2023-08-07T00:42:27;100078.63;;;14.60
34023;BMP280;20673;48.980;8.138;2023-08-07T00:44:53;100079.13;;;14.59
34023;BMP280;20673;48.980;8.138;2023-08-07T00:47:20;100087.17;;;14.57
34023;BMP280;20673;48.980;8.138;2023-08-07T00:49:48;100092.37;;;14.49
34023;BMP280;20673;48.980;8.138;2023-08-07T00:52:14;100086.89;;;14.52
34023;BMP280;20673;48.980;8.138;2023-08-07T00:54:41;100086.31;;;14.50
34023;BMP280;20673;48.980;8.138;2023-08-07T00:57:12;100087.03;;;14.49
34023;BMP280;20673;48.980;8.138;2023-08-07T00:59:41;100092.68;;;14.46
34023;BMP280;20673;48.980;8.138;2023-08-07T01:02:11;100092.29;;;14.49
34023;BMP280;20673;48.980;8.138;2023-08-07T01:04:38;100099.72;;;14.42
34023;BMP280;20673;48.980;8.138;2023-08-07T01:07:05;100097.44;;;14.45
34023;BMP280;20673;48.980;8.138;2023-08-07T01:09:31;100100.45;;;14.45
34023;BMP280;20673;48.980;8.138;2023-08-07T01:12:18;100095.18;;;14.46
34023;BMP280;20673;48.980;8.138;2023-08-07T01:15:04;100104.68;;;14.44
34023;BMP280;20673;48.980;8.138;2023-08-07T01:17:30;100108.95;;;14.41
34023;BMP280;20673;48.980;8.138;2023-08-07T01:19:59;100106.79;;;14.39
34023;BMP280;20673;48.980;8.138;2023-08-07T01:22:26;100102.56;;;14.38
34023;BMP280;20673;48.980;8.138;2023-08-07T01:24:52;100095.22;;;14.36
34023;BMP280;20673;48.980;8.138;2023-08-07T01:33:32;100094.68;;;14.32
34023;BMP280;20673;48.980;8.138;2023-08-07T01:36:02;100096.39;;;14.33
34023;BMP280;20673;48.980;8.138;2023-08-07T01:38:30;100097.23;;;14.32
34023;BMP280;20673;48.980;8.138;2023-08-07T01:40:58;100092.67;;;14.29
34023;BMP280;20673;48.980;8.138;2023-08-07T01:43:27;100107.64;;;14.28
34023;BMP280;20673;48.980;8.138;2023-08-07T01:45:53;100111.53;;;14.25
34023;BMP280;20673;48.980;8.138;2023-08-07T01:48:19;100107.49;;;14.17
34023;BMP280;20673;48.980;8.138;2023-08-07T01:50:46;100108.00;;;14.16
34023;BMP280;20673;48.980;8.138;2023-08-07T01:53:13;100108.59;;;14.08
34023;BMP280;20673;48.980;8.138;2023-08-07T01:55:39;100114.18;;;14.02
34023;BMP280;20673;48.980;8.138;2023-08-07T01:58:05;100110.06;;;13.91
34023;BMP280;20673;48.980;8.138;2023-08-07T02:00:31;100116.54;;;13.80
34023;BMP280;20673;48.980;8.138;2023-08-07T02:02:57;100120.38;;;13.72
34023;BMP280;20673;48.980;8.138;2023-08-07T02:05:23;100120.04;;;13.71
34023;BMP280;20673;48.980;8.138;2023-08-07T02:07:50;100124.97;;;13.65
34023;BMP280;20673;48.980;8.138;2023-08-07T02:10:16;100126.34;;;13.62
34023;BMP280;20673;48.980;8.138;2023-08-07T02:12:42;100129.64;;;13.56
34023;BMP280;20673;48.980;8.138;2023-08-07T02:15:09;100132.42;;;13.53
34023;BMP280;20673;48.980;8.138;2023-08-07T02:17:35;100136.97;;;13.49
34023;BMP280;20673;48.980;8.138;2023-08-07T02:20:07;100130.33;;;13.48
34023;BMP280;20673;48.980;8.138;2023-08-07T02:22:33;100137.51;;;13.48
34023;BMP280;20673;48.980;8.138;2023-08-07T02:24:59;100132.62;;;13.46
34023;BMP280;20673;48.980;8.138;2023-08-07T02:27:26;100132.57;;;13.42
34023;BMP280;20673;48.980;8.138;2023-08-07T02:29:52;100132.43;;;13.44
34023;BMP280;20673;48.980;8.138;2023-08-07T02:32:18;100130.89;;;13.39
34023;BMP280;20673;48.980;8.138;2023-08-07T02:34:45;100130.16;;;13.31
34023;BMP280;20673;48.980;8.138;2023-08-07T02:37:12;100131.11;;;13.24
34023;BMP280;20673;48.980;8.138;2023-08-07T02:39:38;100135.68;;;13.19
34023;BMP280;20673;48.980;8.138;2023-08-07T02:42:04;100131.62;;;13.16
34023;BMP280;20673;48.980;8.138;2023-08-07T02:44:31;100135.58;;;13.14
34023;BMP280;20673;48.980;8.138;2023-08-07T02:46:57;100130.42;;;13.09
34023;BMP280;20673;48.980;8.138;2023-08-07T02:49:23;100135.75;;;13.02
34023;BMP280;20673;48.980;8.138;2023-08-07T02:51:49;100128.28;;;13.00
34023;BMP280;20673;48.980;8.138;2023-08-07T02:54:15;100137.13;;;12.94
34023;BMP280;20673;48.980;8.138;2023-08-07T02:56:41;100133.09;;;12.85
34023;BMP280;20673;48.980;8.138;2023-08-07T02:59:07;100129.75;;;12.86
34023;BMP280;20673;48.980;8.138;2023-08-07T03:01:33;100129.58;;;12.84
34023;BMP280;20673;48.980;8.138;2023-08-07T03:03:59;100126.70;;;12.82
34023;BMP280;20673;48.980;8.138;2023-08-07T03:06:26;100119.97;;;12.78
34023;BMP280;20673;48.980;8.138;2023-08-07T03:08:52;100122.30;;;12.78
34023;BMP280;20673;48.980;8.138;2023-08-07T03:11:18;100124.23;;;12.81
34023;BMP280;20673;48.980;8.138;2023-08-07T03:13:44;100127.47;;;12.80
34023;BMP280;20673;48.980;8.138;2023-08-07T03:16:10;100130.63;;;12.78
34023;BMP280;20673;48.980;8.138;2023-08-07T03:18:36;100131.86;;;12.72
34023;BMP280;20673;48.980;8.138;2023-08-07T03:21:02;100133.01;;;12.70
34023;BMP280;20673;48.980;8.138;2023-08-07T03:23:29;100128.83;;;12.65
34023;BMP280;20673;48.980;8.138;2023-08-07T03:26:10;100127.33;;;12.65
34023;BMP280;20673;48.980;8.138;2023-08-07T03:28:36;100129.08;;;12.64
34023;BMP280;20673;48.980;8.138;2023-08-07T03:31:03;100130.56;;;12.67
34023;BMP280;20673;48.980;8.138;2023-08-07T03:33:30;100129.43;;;12.60
34023;BMP280;20673;48.980;8.138;2023-08-07T03:35:56;100131.99;;;12.55
34023;BMP280;20673;48.980;8.138;2023-08-07T03:38:22;100133.63;;;12.51
34023;BMP280;20673;48.980;8.138;2023-08-07T03:40:49;100128.98;;;12.55
34023;BMP280;20673;48.980;8.138;2023-08-07T03:43:15;100138.15;;;12.53
34023;BMP280;20673;48.980;8.138;2023-08-07T03:45:42;100139.09;;;12.50
34023;BMP280;20673;48.980;8.138;2023-08-07T03:48:08;100139.00;;;12.50
34023;BMP280;20673;48.980;8.138;2023-08-07T03:50:34;100138.37;;;12.50
34023;BMP280;20673;48.980;8.138;2023-08-07T03:53:04;100138.84;;;12.51
34023;BMP280;20673;48.980;8.138;2023-08-07T03:55:32;100138.17;;;12.50
34023;BMP280;20673;48.980;8.138;2023-08-07T03:57:58;100134.96;;;12.50
34023;BMP280;20673;48.980;8.138;2023-08-07T04:00:24;100136.48;;;12.46
34023;BMP280;20673;48.980;8.138;2023-08-07T04:02:51;100140.70;;;12.47
34023;BMP280;20673;48.980;8.138;2023-08-07T04:05:17;100135.18;;;12.48
34023;BMP280;20673;48.980;8.138;2023-08-07T04:07:43;100132.95;;;12.50
34023;BMP280;20673;48.980;8.138;2023-08-07T04:10:09;100134.55;;;12.52
34023;BMP280;20673;48.980;8.138;2023-08-07T04:12:36;100132.50;;;12.50
34023;BMP280;20673;48.980;8.138;2023-08-07T04:15:02;100139.62;;;12.51
34023;BMP280;20673;48.980;8.138;2023-08-07T04:17:28;100135.43;;;12.53
34023;BMP280;20673;48.980;8.138;2023-08-07T04:19:54;100129.34;;;12.58
34023;BMP280;20673;48.980;8.138;2023-08-07T04:22:20;100132.18;;;12.61
34023;BMP280;20673;48.980;8.138;2023-08-07T04:24:46;100136.93;;;12.69
34023;BMP280;20673;48.980;8.138;2023-08-07T04:27:12;100128.45;;;12.75
34023;BMP280;20673;48.980;8.138;2023-08-07T04:29:39;100130.92;;;12.78
34023;BMP280;20673;48.980;8.138;2023-08-07T04:32:06;100134.08;;;12.84
34023;BMP280;20673;48.980;8.138;2023-08-07T04:34:32;100133.11;;;12.87
34023;BMP280;20673;48.980;8.138;2023-08-07T04:36:58;100135.26;;;12.86
34023;BMP280;20673;48.980;8.138;2023-08-07T04:39:24;100128.62;;;12.94
34023;BMP280;20673;48.980;8.138;2023-08-07T04:41:50;100136.53;;;12.99
34023;BMP280;20673;48.980;8.138;2023-08-07T04:44:16;100132.48;;;12.99
34023;BMP280;20673;48.980;8.138;2023-08-07T04:46:42;100129.48;;;13.00
34023;BMP280;20673;48.980;8.138;2023-08-07T04:49:08;100133.04;;;13.03
34023;BMP280;20673;48.980;8.138;2023-08-07T04:51:35;100140.34;;;13.04
34023;BMP280;20673;48.980;8.138;2023-08-07T04:54:02;100139.84;;;13.05
34023;BMP280;20673;48.980;8.138;2023-08-07T04:56:28;100147.23;;;13.06
34023;BMP280;20673;48.980;8.138;2023-08-07T04:58:54;100148.52;;;13.05
34023;BMP280;20673;48.980;8.138;2023-08-07T05:01:20;100152.25;;;13.10
34023;BMP280;20673;48.980;8.138;2023-08-07T05:03:46;100152.67;;;13.10
34023;BMP280;20673;48.980;8.138;2023-08-07T05:06:12;100151.39;;;13.12
34023;BMP280;20673;48.980;8.138;2023-08-07T05:08:38;100151.51;;;13.14
34023;BMP280;20673;48.980;8.138;2023-08-07T05:11:04;100152.09;;;13.13
34023;BMP280;20673;48.980;8.138;2023-08-07T05:13:31;100151.32;;;13.16
34023;BMP280;20673;48.980;8.138;2023-08-07T05:15:57;100161.12;;;13.18
34023;BMP280;20673;48.980;8.138;2023-08-07T05:18:23;100162.08;;;13.17
34023;BMP280;20673;48.980;8.138;2023-08-07T05:20:49;100161.72;;;13.20
34023;BMP280;20673;48.980;8.138;2023-08-07T05:23:15;100164.48;;;13.22
34023;BMP280;20673;48.980;8.138;2023-08-07T05:25:41;100167.17;;;13.30
34023;BMP280;20673;48.980;8.138;2023-08-07T05:28:09;100168.86;;;13.37
34023;BMP280;20673;48.980;8.138;2023-08-07T05:30:35;100163.58;;;13.41
34023;BMP280;20673;48.980;8.138;2023-08-07T05:33:02;100167.73;;;13.49
34023;BMP280;20673;48.980;8.138;2023-08-07T05:35:28;100162.39;;;13.53
34023;BMP280;20673;48.980;8.138;2023-08-07T05:37:54;100168.75;;;13.56
34023;BMP280;20673;48.980;8.138;2023-08-07T05:40:20;100171.89;;;13.63
34023;BMP280;20673;48.980;8.138;2023-08-07T05:42:46;100167.37;;;13.61
34023;BMP280;20673;48.980;8.138;2023-08-07T05:45:12;100177.74;;;13.65
34023;BMP280;20673;48.980;8.138;2023-08-07T05:47:38;100182.87;;;13.65
34023;BMP280;20673;48.980;8.138;2023-08-07T05:50:05;100181.04;;;13.67
34023;BMP280;20673;48.980;8.138;2023-08-07T05:52:31;100178.53;;;13.65
34023;BMP280;20673;48.980;8.138;2023-08-07T05:54:58;100178.83;;;13.61
34023;BMP280;20673;48.980;8.138;2023-08-07T05:57:24;100182.78;;;13.60
34023;BMP280;20673;48.980;8.138;2023-08-07T05:59:50;100194.87;;;13.53
34023;BMP280;20673;48.980;8.138;2023-08-07T06:02:17;100197.62;;;13.53
34023;BMP280;20673;48.980;8.138;2023-08-07T06:04:43;100200.71;;;13.50
34023;BMP280;20673;48.980;8.138;2023-08-07T06:07:09;100204.17;;;13.53
34023;BMP280;20673;48.980;8.138;2023-08-07T06:09:36;100206.87;;;13.61
34023;BMP280;20673;48.980;8.138;2023-08-07T06:12:02;100200.04;;;13.69
34023;BMP280;20673;48.980;8.138;2023-08-07T06:14:28;100198.36;;;13.84
34023;BMP280;20673;48.980;8.138;2023-08-07T06:16:55;100201.41;;;13.92
34023;BMP280;20673;48.980;8.138;2023-08-07T06:19:23;100201.29;;;13.98
34023;BMP280;20673;48.980;8.138;2023-08-07T06:21:49;100202.39;;;14.06
34023;BMP280;20673;48.980;8.138;2023-08-07T06:24:15;100198.33;;;14.21
34023;BMP280;20673;48.980;8.138;2023-08-07T06:26:41;100194.44;;;14.37
34023;BMP280;20673;48.980;8.138;2023-08-07T06:29:07;100194.68;;;14.51
34023;BMP280;20673;48.980;8.138;2023-08-07T06:31:33;100201.73;;;14.62
34023;BMP280;20673;48.980;8.138;2023-08-07T06:33:59;100202.39;;;14.67
34023;BMP280;20673;48.980;8.138;2023-08-07T06:36:26;100198.90;;;14.69
34023;BMP280;20673;48.980;8.138;2023-08-07T06:38:52;100208.73;;;14.70
34023;BMP280;20673;48.980;8.138;2023-08-07T06:41:18;100206.23;;;14.72
34023;BMP280;20673;48.980;8.138;2023-08-07T06:43:45;100207.39;;;14.77
34023;BMP280;20673;48.980;8.138;2023-08-07T06:46:11;100203.58;;;14.79
34023;BMP280;20673;48.980;8.138;2023-08-07T06:48:37;100204.80;;;14.89
34023;BMP280;20673;48.980;8.138;2023-08-07T06:51:03;100213.59;;;15.03
34023;BMP280;20673;48.980;8.138;2023-08-07T06:53:29;100222.70;;;15.16
34023;BMP280;20673;48.980;8.138;2023-08-07T06:55:55;100225.54;;;15.20
34023;BMP280;20673;48.980;8.138;2023-08-07T06:58:21;100226.47;;;15.30
34023;BMP280;20673;48.980;8.138;2023-08-07T07:00:47;100234.65;;;15.34
34023;BMP280;20673;48.980;8.138;2023-08-07T07:03:14;100232.62;;;15.49
34023;BMP280;20673;48.980;8.138;2023-08-07T07:05:40;100245.46;;;15.53
34023;BMP280;20673;48.980;8.138;2023-08-07T07:08:08;100233.83;;;15.58
34023;BMP280;20673;48.980;8.138;2023-08-07T07:10:34;100239.89;;;15.61
34023;BMP280;20673;48.980;8.138;2023-08-07T07:13:00;100238.21;;;15.68
34023;BMP280;20673;48.980;8.138;2023-08-07T07:15:26;100237.57;;;15.56
34023;BMP280;20673;48.980;8.138;2023-08-07T07:17:53;100240.45;;;15.58
34023;BMP280;20673;48.980;8.138;2023-08-07T07:20:19;100221.22;;;15.52
34023;BMP280;20673;48.980;8.138;2023-08-07T07:22:46;100245.95;;;15.63
34023;BMP280;20673;48.980;8.138;2023-08-07T07:25:12;100256.42;;;15.71
34023;BMP280;20673;48.980;8.138;2023-08-07T07:27:39;100251.29;;;15.67
34023;BMP280;20673;48.980;8.138;2023-08-07T07:30:06;100260.23;;;15.71
34023;BMP280;20673;48.980;8.138;2023-08-07T07:32:33;100257.39;;;15.71
34023;BMP280;20673;48.980;8.138;2023-08-07T07:34:59;100257.00;;;15.82
34023;BMP280;20673;48.980;8.138;2023-08-07T07:37:25;100259.50;;;15.89
34023;BMP280;20673;48.980;8.138;2023-08-07T07:39:52;100254.37;;;16.04
34023;BMP280;20673;48.980;8.138;2023-08-07T07:42:18;100269.28;;;16.00
34023;BMP280;20673;48.980;8.138;2023-08-07T07:44:44;100268.98;;;16.08
34023;BMP280;20673;48.980;8.138;2023-08-07T07:47:10;100267.22;;;16.08
34023;BMP280;20673;48.980;8.138;2023-08-07T07:49:36;100268.58;;;16.10
34023;BMP280;20673;48.980;8.138;2023-08-07T07:52:03;100255.45;;;16.11
34023;BMP280;20673;48.980;8.138;2023-08-07T07:54:29;100265.53;;;16.16
34023;BMP280;20673;48.980;8.138;2023-08-07T07:56:55;100273.23;;;16.11
34023;BMP280;20673;48.980;8.138;2023-08-07T07:59:21;100270.78;;;16.26
34023;BMP280;20673;48.980;8.138;2023-08-07T08:01:47;100271.99;;;16.33
34023;BMP280;20673;48.980;8.138;2023-08-07T08:04:14;100273.73;;;16.46
34023;BMP280;20673;48.980;8.138;2023-08-07T08:06:40;100279.15;;;16.44
34023;BMP280;20673;48.980;8.138;2023-08-07T08:09:07;100278.54;;;16.62
34023;BMP280;20673;48.980;8.138;2023-08-07T08:11:35;100279.01;;;16.56
34023;BMP280;20673;48.980;8.138;2023-08-07T08:14:01;100281.44;;;16.72
34023;BMP280;20673;48.980;8.138;2023-08-07T08:16:27;100280.61;;;16.88
34023;BMP280;20673;48.980;8.138;2023-08-07T08:18:53;100280.05;;;17.01
34023;BMP280;20673;48.980;8.138;2023-08-07T08:21:19;100287.62;;;17.05
34023;BMP280;20673;48.980;8.138;2023-08-07T08:23:45;100285.39;;;17.13
34023;BMP280;20673;48.980;8.138;2023-08-07T08:26:11;100287.12;;;17.08
34023;BMP280;20673;48.980;8.138;2023-08-07T08:28:38;100290.37;;;17.03
34023;BMP280;20673;48.980;8.138;2023-08-07T08:31:05;100297.22;;;17.06
34023;BMP280;20673;48.980;8.138;2023-08-07T08:33:31;100289.12;;;16.94
34023;BMP280;20673;48.980;8.138;2023-08-07T08:35:57;100287.25;;;17.16
34023;BMP280;20673;48.980;8.138;2023-08-07T08:38:23;100283.81;;;17.08
34023;BMP280;20673;48.980;8.138;2023-08-07T08:40:52;100287.67;;;17.23
34023;BMP280;20673;48.980;8.138;2023-08-07T08:43:19;100281.77;;;17.39
34023;BMP280;20673;48.980;8.138;2023-08-07T08:45:46;100284.89;;;17.28
34023;BMP280;20673;48.980;8.138;2023-08-07T08:48:19;100279.31;;;17.35
34023;BMP280;20673;48.980;8.138;2023-08-07T08:50:46;100282.37;;;17.53
34023;BMP280;20673;48.980;8.138;2023-08-07T08:53:13;100284.86;;;17.62
34023;BMP280;20673;48.980;8.138;2023-08-07T08:55:40;100282.43;;;17.90
34023;BMP280;20673;48.980;8.138;2023-08-07T08:58:09;100289.72;;;17.86
34023;BMP280;20673;48.980;8.138;2023-08-07T09:00:35;100284.18;;;17.91
34023;BMP280;20673;48.980;8.138;2023-08-07T09:03:02;100277.58;;;17.91
34023;BMP280;20673;48.980;8.138;2023-08-07T09:05:28;100283.34;;;17.81
34023;BMP280;20673;48.980;8.138;2023-08-07T09:07:56;100280.89;;;18.00
34023;BMP280;20673;48.980;8.138;2023-08-07T09:10:23;100283.31;;;17.95
34023;BMP280;20673;48.980;8.138;2023-08-07T09:13:04;100285.93;;;18.00
34023;BMP280;20673;48.980;8.138;2023-08-07T09:15:33;100281.76;;;18.18
34023;BMP280;20673;48.980;8.138;2023-08-07T09:18:05;100289.29;;;18.06
34023;BMP280;20673;48.980;8.138;2023-08-07T09:20:35;100289.68;;;18.20
34023;BMP280;20673;48.980;8.138;2023-08-07T09:23:01;100266.43;;;18.30
34023;BMP280;20673;48.980;8.138;2023-08-07T09:25:31;100284.68;;;18.41
34023;BMP280;20673;48.980;8.138;2023-08-07T09:27:57;100279.80;;;18.62
34023;BMP280;20673;48.980;8.138;2023-08-07T09:30:32;100279.50;;;18.68
34023;BMP280;20673;48.980;8.138;2023-08-07T09:32:57;100283.08;;;18.67
34023;BMP280;20673;48.980;8.138;2023-08-07T09:35:24;100281.25;;;18.76
34023;BMP280;20673;48.980;8.138;2023-08-07T09:37:51;100278.72;;;18.69
34023;BMP280;20673;48.980;8.138;2023-08-07T09:40:18;100286.95;;;18.93
34023;BMP280;20673;48.980;8.138;2023-08-07T09:42:53;100285.73;;;19.02
34023;BMP280;20673;48.980;8.138;2023-08-07T09:45:27;100278.03;;;19.18
34023;BMP280;20673;48.980;8.138;2023-08-07T09:48:04;100285.75;;;19.32
34023;BMP280;20673;48.980;8.138;2023-08-07T09:50:34;100275.34;;;19.30
34023;BMP280;20673;48.980;8.138;2023-08-07T09:53:00;100280.36;;;19.51
34023;BMP280;20673;48.980;8.138;2023-08-07T09:55:27;100283.14;;;19.73
34023;BMP280;20673;48.980;8.138;2023-08-07T09:57:54;100282.54;;;19.90
34023;BMP280;20673;48.980;8.138;2023-08-07T10:00:20;100279.23;;;20.32
34023;BMP280;20673;48.980;8.138;2023-08-07T10:02:48;100279.11;;;20.37
34023;BMP280;20673;48.980;8.138;2023-08-07T10:05:16;100286.58;;;20.23
34023;BMP280;20673;48.980;8.138;2023-08-07T10:07:42;100285.68;;;20.35
34023;BMP280;20673;48.980;8.138;2023-08-07T10:10:09;100276.73;;;20.88
34023;BMP280;20673;48.980;8.138;2023-08-07T10:12:37;100270.65;;;20.52
34023;BMP280;20673;48.980;8.138;2023-08-07T10:15:07;100270.50;;;20.54
34023;BMP280;20673;48.980;8.138;2023-08-07T10:17:33;100277.97;;;20.11
34023;BMP280;20673;48.980;8.138;2023-08-07T10:20:00;100293.47;;;20.68
34023;BMP280;20673;48.980;8.138;2023-08-07T10:22:30;100301.53;;;21.07
34023;BMP280;20673;48.980;8.138;2023-08-07T10:25:01;100281.67;;;21.35
34023;BMP280;20673;48.980;8.138;2023-08-07T10:27:32;100301.28;;;21.77
34023;BMP280;20673;48.980;8.138;2023-08-07T10:30:01;100279.20;;;20.99
34023;BMP280;20673;48.980;8.138;2023-08-07T10:32:29;100289.92;;;21.15
34023;BMP280;20673;48.980;8.138;2023-08-07T10:34:56;100296.24;;;21.70
34023;BMP280;20673;48.980;8.138;2023-08-07T10:37:43;100293.65;;;21.75
34023;BMP280;20673;48.980;8.138;2023-08-07T10:40:12;100292.03;;;23.14
34023;BMP280;20673;48.980;8.138;2023-08-07T10:45:36;100284.77;;;20.96
34023;BMP280;20673;48.980;8.138;2023-08-07T10:48:10;100279.29;;;20.68
34023;BMP280;20673;48.980;8.138;2023-08-07T10:56:05;100278.42;;;21.23
34023;BMP280;20673;48.980;8.138;2023-08-07T10:58:39;100292.37;;;21.65
34023;BMP280;20673;48.980;8.138;2023-08-07T11:03:57;100270.04;;;20.64
34023;BMP280;20673;48.980;8.138;2023-08-07T11:06:31;100276.80;;;20.74
34023;BMP280;20673;48.980;8.138;2023-08-07T11:08:59;100307.89;;;21.44
34023;BMP280;20673;48.980;8.138;2023-08-07T11:11:27;100298.70;;;21.66
34023;BMP280;20673;48.980;8.138;2023-08-07T11:13:53;100302.55;;;21.99
34023;BMP280;20673;48.980;8.138;2023-08-07T11:16:19;100279.17;;;22.28
34023;BMP280;20673;48.980;8.138;2023-08-07T11:18:51;100277.97;;;22.86
34023;BMP280;20673;48.980;8.138;2023-08-07T11:21:18;100298.20;;;22.69
34023;BMP280;20673;48.980;8.138;2023-08-07T11:23:45;100275.76;;;22.15
34023;BMP280;20673;48.980;8.138;2023-08-07T11:26:12;100272.33;;;21.95
34023;BMP280;20673;48.980;8.138;2023-08-07T11:28:38;100275.83;;;22.05
34023;BMP280;20673;48.980;8.138;2023-08-07T11:31:04;100277.94;;;22.35
34023;BMP280;20673;48.980;8.138;2023-08-07T11:33:31;100285.52;;;22.85
34023;BMP280;20673;48.980;8.138;2023-08-07T11:35:57;100286.73;;;22.68
34023;BMP280;20673;48.980;8.138;2023-08-07T11:38:41;100279.42;;;22.63
34023;BMP280;20673;48.980;8.138;2023-08-07T11:41:10;100272.61;;;22.02
34023;BMP280;20673;48.980;8.138;2023-08-07T11:43:37;100286.86;;;21.97
34023;BMP280;20673;48.980;8.138;2023-08-07T11:46:07;100289.47;;;21.86
34023;BMP280;20673;48.980;8.138;2023-08-07T11:48:37;100283.93;;;21.71
34023;BMP280;20673;48.980;8.138;2023-08-07T11:51:05;100289.50;;;21.52
34023;BMP280;20673;48.980;8.138;2023-08-07T11:53:39;100290.15;;;21.24
34023;BMP280;20673;48.980;8.138;2023-08-07T11:56:06;100296.59;;;21.63
34023;BMP280;20673;48.980;8.138;2023-08-07T11:58:36;100306.45;;;22.48
34023;BMP280;20673;48.980;8.138;2023-08-07T12:01:18;100289.61;;;22.77
34023;BMP280;20673;48.980;8.138;2023-08-07T12:03:54;100277.04;;;22.34
34023;BMP280;20673;48.980;8.138;2023-08-07T12:06:22;100283.99;;;22.02
34023;BMP280;20673;48.980;8.138;2023-08-07T12:08:55;100282.59;;;22.06
34023;BMP280;20673;48.980;8.138;2023-08-07T12:11:22;100295.43;;;22.27
34023;BMP280;20673;48.980;8.138;2023-08-07T12:13:49;100304.62;;;22.89
34023;BMP280;20673;48.980;8.138;2023-08-07T12:16:17;100297.41;;;23.03
34023;BMP280;20673;48.980;8.138;2023-08-07T12:18:45;100281.05;;;23.70
34023;BMP280;20673;48.980;8.138;2023-08-07T12:21:19;100275.31;;;23.04
34023;BMP280;20673;48.980;8.138;2023-08-07T12:23:46;100270.73;;;22.77
34023;BMP280;20673;48.980;8.138;2023-08-07T12:26:14;100280.51;;;22.86
34023;BMP280;20673;48.980;8.138;2023-08-07T12:28:40;100273.83;;;22.38
34023;BMP280;20673;48.980;8.138;2023-08-07T12:31:07;100273.75;;;23.23
34023;BMP280;20673;48.980;8.138;2023-08-07T12:33:33;100284.17;;;22.74
34023;BMP280;20673;48.980;8.138;2023-08-07T12:36:00;100260.73;;;22.48
34023;BMP280;20673;48.980;8.138;2023-08-07T12:38:28;100275.07;;;22.79
34023;BMP280;20673;48.980;8.138;2023-08-07T12:40:55;100275.34;;;22.52
34023;BMP280;20673;48.980;8.138;2023-08-07T12:43:21;100267.57;;;22.48
34023;BMP280;20673;48.980;8.138;2023-08-07T12:45:48;100274.61;;;22.54
34023;BMP280;20673;48.980;8.138;2023-08-07T12:48:14;100245.96;;;22.04
34023;BMP280;20673;48.980;8.138;2023-08-07T12:50:40;100246.82;;;21.97
34023;BMP280;20673;48.980;8.138;2023-08-07T12:53:07;100266.29;;;21.73
34023;BMP280;20673;48.980;8.138;2023-08-07T12:55:34;100270.12;;;21.71
34023;BMP280;20673;48.980;8.138;2023-08-07T12:58:00;100280.68;;;22.02
34023;BMP280;20673;48.980;8.138;2023-08-07T13:00:26;100266.93;;;22.33
34023;BMP280;20673;48.980;8.138;2023-08-07T13:02:53;100273.78;;;22.72
34023;BMP280;20673;48.980;8.138;2023-08-07T13:05:22;100280.45;;;22.87
34023;BMP280;20673;48.980;8.138;2023-08-07T13:07:49;100287.56;;;23.36
34023;BMP280;20673;48.980;8.138;2023-08-07T13:10:17;100281.26;;;23.82
34023;BMP280;20673;48.980;8.138;2023-08-07T13:12:47;100278.68;;;24.20
34023;BMP280;20673;48.980;8.138;2023-08-07T13:15:15;100275.53;;;23.87
34023;BMP280;20673;48.980;8.138;2023-08-07T13:17:43;100283.17;;;24.48
34023;BMP280;20673;48.980;8.138;2023-08-07T13:20:13;100269.43;;;23.76
34023;BMP280;20673;48.980;8.138;2023-08-07T13:22:43;100279.93;;;23.14
34023;BMP280;20673;48.980;8.138;2023-08-07T13:25:12;100286.87;;;23.83
34023;BMP280;20673;48.980;8.138;2023-08-07T13:27:39;100278.15;;;23.27
34023;BMP280;20673;48.980;8.138;2023-08-07T13:30:07;100276.67;;;23.12
34023;BMP280;20673;48.980;8.138;2023-08-07T13:32:33;100283.43;;;22.55
34023;BMP280;20673;48.980;8.138;2023-08-07T13:35:00;100281.26;;;22.38
34023;BMP280;20673;48.980;8.138;2023-08-07T13:37:26;100296.33;;;22.73
34023;BMP280;20673;48.980;8.138;2023-08-07T13:39:52;100274.47;;;22.72
34023;BMP280;20673;48.980;8.138;2023-08-07T13:42:20;100267.65;;;22.10
34023;BMP280;20673;48.980;8.138;2023-08-07T13:44:46;100302.24;;;22.08
34023;BMP280;20673;48.980;8.138;2023-08-07T13:47:12;100277.22;;;22.91
34023;BMP280;20673;48.980;8.138;2023-08-07T13:49:39;100278.90;;;22.52
34023;BMP280;20673;48.980;8.138;2023-08-07T13:52:06;100281.11;;;22.02
34023;BMP280;20673;48.980;8.138;2023-08-07T13:54:32;100285.06;;;21.71
34023;BMP280;20673;48.980;8.138;2023-08-07T13:56:58;100287.04;;;21.42
34023;BMP280;20673;48.980;8.138;2023-08-07T13:59:24;100295.64;;;20.94
34023;BMP280;20673;48.980;8.138;2023-08-07T14:01:51;100291.83;;;20.81
34023;BMP280;20673;48.980;8.138;2023-08-07T14:04:18;100297.81;;;20.67
34023;BMP280;20673;48.980;8.138;2023-08-07T14:06:44;100299.59;;;20.52
34023;BMP280;20673;48.980;8.138;2023-08-07T14:09:10;100293.21;;;20.33
34023;BMP280;20673;48.980;8.138;2023-08-07T14:11:38;100299.25;;;20.31
34023;BMP280;20673;48.980;8.138;2023-08-07T14:14:04;100310.18;;;20.37